Time;durP1;ratioP1;P1;durP2;ratioP2;P2;SDS_P1;SDS_P2;PMS_P1;PMS_P2;Temp;Humidity;BMP_temperature;BMP_pressure;BME280_temperature;BME280_humidity;BME280_pressure;Samples;Min_cycle;Max_cycle;Signal;HPM_P1;HPM_P2
2021/06/17 14:45:59;;;;;;;1999.90;999.90;;;;;;;26.68;51.14;95734.38;5156272;27;257239;-59
2021/06/17 14:48:27;;;;;;;1999.90;999.90;;;;;;;26.76;49.35;95735.84;5148925;27;20193;-58
2021/06/17 14:50:55;;;;;;;1999.90;999.90;;;;;;;27.15;48.75;95747.00;5149058;27;20592;-59
2021/06/17 14:53:22;;;;;;;1999.90;999.90;;;;;;;27.45;47.94;95753.63;5148852;27;20186;-59
2021/06/17 14:55:50;;;;;;;1999.90;999.90;;;;;;;27.69;44.05;95758.00;5149049;27;20201;-58
2021/06/17 15:15:32;;;;;;;1999.90;999.90;;;;;;;27.41;46.21;95773.09;5128686;27;20551;-60
2021/06/17 15:18:00;;;;;;;1999.90;999.90;;;;;;;27.21;47.51;95777.47;5128208;28;20194;-59
2021/06/17 15:20:27;;;;;;;1999.90;999.90;;;;;;;27.03;48.58;95784.84;5128055;28;20191;-60
2021/06/17 15:22:54;;;;;;;1999.90;999.90;;;;;;;26.81;50.00;95796.78;5128355;28;20545;-59
2021/06/17 15:25:22;;;;;;;1999.90;999.90;;;;;;;26.69;51.11;95794.56;5128198;28;20604;-57
2021/06/17 15:27:49;;;;;;;1999.90;999.90;;;;;;;26.54;51.41;95789.31;5127989;28;20190;-59
2021/06/17 15:30:16;;;;;;;1999.90;999.90;;;;;;;26.55;51.30;95787.41;5127984;27;20203;-59
2021/06/17 15:32:45;;;;;;;1999.90;999.90;;;;;;;26.56;52.62;95791.56;5127945;28;20202;-59
2021/06/17 15:35:13;;;;;;;1999.90;999.90;;;;;;;26.62;54.13;95786.59;5127893;28;20191;-60
2021/06/17 15:37:40;;;;;;;1999.90;999.90;;;;;;;26.66;51.86;95790.00;5127881;27;20187;-59
2021/06/17 15:40:09;;;;;;;1999.90;999.90;;;;;;;26.53;52.42;95792.38;5127795;28;20289;-60
2021/06/17 15:42:36;;;;;;;1999.90;999.90;;;;;;;26.47;52.38;95797.34;5127851;28;20656;-57
2021/06/17 15:45:04;;;;;;;1999.90;999.90;;;;;;;26.52;51.80;95796.94;5127800;28;20226;-60
2021/06/17 15:47:31;;;;;;;1999.90;999.90;;;;;;;26.40;53.54;95799.28;5127476;28;20194;-60
2021/06/17 15:50:00;;;;;;;1999.90;999.90;;;;;;;26.36;57.03;95801.19;5127502;28;20259;-59
2021/06/17 15:52:27;;;;;;;1999.90;999.90;;;;;;;26.28;57.78;95810.38;5127484;28;20750;-59
2021/06/17 15:54:55;;;;;;;1999.90;999.90;;;;;;;25.92;56.97;95810.44;5127490;27;20226;-59
2021/06/17 15:57:23;;;;;;;1999.90;999.90;;;;;;;25.90;57.96;95804.75;5127647;27;20278;-59
2021/06/17 15:59:50;;;;;;;1999.90;999.90;;;;;;;25.98;58.61;95800.16;5127323;28;20198;-59
2021/06/17 16:02:19;;;;;;;1999.90;999.90;;;;;;;25.93;59.33;95803.97;5127162;28;20197;-59
2021/06/17 16:04:46;;;;;;;1999.90;999.90;;;;;;;25.97;59.66;95804.72;5127551;27;20271;-59
2021/06/17 16:07:15;;;;;;;1999.90;999.90;;;;;;;25.86;59.63;95811.97;5127384;27;20198;-59
2021/06/17 16:09:42;;;;;;;1999.90;999.90;;;;;;;25.78;58.62;95815.78;5127238;27;20194;-59
2021/06/17 16:12:12;;;;;;;1999.90;999.90;;;;;;;25.60;60.27;95820.41;5127451;27;20203;-59
2021/06/17 16:14:39;;;;;;;1999.90;999.90;;;;;;;25.42;60.57;95825.69;5123554;27;20745;-58
2021/06/17 16:17:07;;;;;;;1999.90;999.90;;;;;;;25.36;62.38;95826.44;5113274;28;20649;-59
2021/06/17 16:19:36;;;;;;;1999.90;999.90;;;;;;;25.26;63.17;95828.72;5113607;28;20190;-59
2021/06/17 16:22:04;;;;;;;1999.90;999.90;;;;;;;25.06;63.68;95832.88;5113467;28;20187;-59
2021/06/17 16:24:33;;;;;;;1999.90;999.90;;;;;;;24.90;64.83;95837.03;5113328;28;20195;-59
2021/06/17 16:27:01;;;;;;;1999.90;999.90;;;;;;;24.81;65.65;95826.72;5113564;28;20199;-61
2021/06/17 16:29:30;;;;;;;1999.90;999.90;;;;;;;24.75;67.01;95836.22;5113185;28;20741;-62
2021/06/17 16:31:59;;;;;;;1999.90;999.90;;;;;;;24.65;63.41;95837.72;5113453;28;20199;-62
2021/06/17 16:34:28;;;;;;;1999.90;999.90;;;;;;;24.52;58.72;95830.41;5113100;28;20732;-60
2021/06/17 16:36:56;;;;;;;1999.90;999.90;;;;;;;24.37;59.54;95833.03;5113058;28;20195;-59
2021/06/17 16:39:23;;;;;;;1999.90;999.90;;;;;;;24.34;60.52;95847.06;5112888;27;20195;-59
2021/06/17 16:41:52;;;;;;;1999.90;999.90;;;;;;;24.36;61.02;95860.72;5112773;28;20191;-60
2021/06/17 16:44:19;;;;;;;1999.90;999.90;;;;;;;24.23;63.15;95869.41;5112671;28;20191;-61
2021/06/17 16:46:50;;;;;;;1999.90;999.90;;;;;;;24.01;64.90;95873.78;5113088;28;20214;-60
2021/06/17 16:49:19;;;;;;;1999.90;999.90;;;;;;;23.80;68.10;95876.31;5112933;28;20688;-62
2021/06/17 16:51:46;;;;;;;1999.90;999.90;;;;;;;23.59;68.70;95863.63;5112718;27;20198;-61
2021/06/17 16:54:24;;;;;;;1999.90;999.90;;;;;;;23.45;68.52;95866.94;5112610;28;20230;-62
2021/06/17 16:56:53;;;;;;;1999.90;999.90;;;;;;;23.33;67.38;95869.84;5113440;28;20214;-61
2021/06/17 16:59:21;;;;;;;1999.90;999.90;;;;;;;23.09;67.73;95879.09;5112929;28;20191;-62
2021/06/17 17:01:48;;;;;;;1999.90;999.90;;;;;;;22.83;69.22;95879.19;5112581;28;20194;-62
2021/06/17 17:04:16;;;;;;;1999.90;999.90;;;;;;;22.82;69.60;95890.91;5112254;27;20215;-61
2021/06/17 17:06:43;;;;;;;1999.90;999.90;;;;;;;22.63;70.50;95893.69;5112433;28;20199;-61
2021/06/17 17:09:10;;;;;;;1999.90;999.90;;;;;;;22.39;70.75;95900.19;5112530;28;20641;-61
2021/06/17 17:11:38;;;;;;;1999.90;999.90;;;;;;;22.21;70.39;95899.97;5112517;28;20248;-60
2021/06/17 17:14:07;;;;;;;1999.90;999.90;;;;;;;22.21;69.44;95899.22;5112247;28;20296;-60
2021/06/17 17:16:34;;;;;;;1999.90;999.90;;;;;;;22.20;67.70;95895.03;5112548;28;20501;-61
2021/06/17 17:19:02;;;;;;;1999.90;999.90;;;;;;;22.11;67.37;95891.88;5112475;28;20195;-60
2021/06/17 17:21:30;;;;;;;1999.90;999.90;;;;;;;21.96;68.59;95901.50;5112104;28;20274;-61
2021/06/17 17:23:57;;;;;;;1999.90;999.90;;;;;;;21.82;68.27;95909.16;5112373;28;20289;-59
2021/06/17 17:26:26;;;;;;;1999.90;999.90;;;;;;;21.73;67.65;95911.31;5111538;28;20227;-60
2021/06/17 17:28:54;;;;;;;1999.90;999.90;;;;;;;21.71;68.00;95910.91;5111866;28;20195;-61
2021/06/17 17:31:23;;;;;;;1999.90;999.90;;;;;;;21.57;69.02;95897.47;5112061;28;20246;-61
2021/06/17 17:33:50;;;;;;;1999.90;999.90;;;;;;;21.51;68.30;95904.94;5111822;27;20237;-61
2021/06/17 17:36:18;;;;;;;1999.90;999.90;;;;;;;21.45;67.00;95912.38;5111918;28;20193;-61
2021/06/17 17:38:45;;;;;;;1999.90;999.90;;;;;;;21.45;67.55;95915.03;5112047;28;20229;-61
2021/06/17 17:41:13;;;;;;;1999.90;999.90;;;;;;;21.45;66.59;95920.31;5111741;28;20195;-61
2021/06/17 17:43:40;;;;;;;1999.90;999.90;;;;;;;21.50;66.00;95915.84;5111714;28;20877;-61
2021/06/17 17:46:08;;;;;;;1999.90;999.90;;;;;;;21.47;66.10;95926.00;5111650;28;20278;-61
2021/06/17 17:48:37;;;;;;;1999.90;999.90;;;;;;;21.30;68.35;95939.69;5111708;28;20565;-60
2021/06/17 17:51:05;;;;;;;1999.90;999.90;;;;;;;21.26;68.06;95960.03;5111839;28;20187;-60
2021/06/17 17:53:32;;;;;;;1999.90;999.90;;;;;;;21.35;68.93;95965.84;5111594;28;20191;-60
2021/06/17 17:55:59;;;;;;;1999.90;999.90;;;;;;;21.43;71.09;95975.44;5111351;28;20661;-61
2021/06/17 17:58:28;;;;;;;1999.90;999.90;;;;;;;21.40;71.16;95972.72;5111494;28;20193;-60
2021/06/17 18:00:55;;;;;;;1999.90;999.90;;;;;;;21.37;71.84;95965.50;5111394;28;20282;-61
2021/06/17 18:03:23;;;;;;;1999.90;999.90;;;;;;;21.44;71.08;95974.31;5111309;28;20241;-60
2021/06/17 18:05:52;;;;;;;1999.90;999.90;;;;;;;21.62;69.08;95973.88;5111883;27;20198;-61
2021/06/17 18:08:21;;;;;;;1999.90;999.90;;;;;;;21.59;67.85;95963.97;5111217;28;20201;-61
2021/06/17 18:10:49;;;;;;;1999.90;999.90;;;;;;;21.43;68.72;95972.78;5111075;28;20194;-61
2021/06/17 18:13:19;;;;;;;1999.90;999.90;;;;;;;21.43;69.40;95966.72;5110943;28;20198;-61
2021/06/17 18:15:54;;;;;;;1999.90;999.90;;;;;;;21.45;67.16;95970.56;5110960;28;20234;-61
2021/06/17 18:18:25;;;;;;;1999.90;999.90;;;;;;;21.46;65.94;95969.47;5111362;28;20217;-61
2021/06/17 18:20:54;;;;;;;1999.90;999.90;;;;;;;21.26;67.00;95972.47;5110939;28;20665;-61
2021/06/17 18:23:22;;;;;;;1999.90;999.90;;;;;;;21.20;67.03;95979.16;5111066;28;20575;-60
2021/06/17 18:25:49;;;;;;;1999.90;999.90;;;;;;;21.21;67.11;95985.97;5111062;27;20195;-61
2021/06/17 18:28:16;;;;;;;1999.90;999.90;;;;;;;21.26;66.45;95986.47;5110987;28;20282;-61
2021/06/17 18:30:44;;;;;;;1999.90;999.90;;;;;;;21.26;66.65;95993.63;5110844;28;20200;-61
2021/06/17 18:33:11;;;;;;;1999.90;999.90;;;;;;;21.28;66.48;96002.72;5110959;28;20187;-61
2021/06/17 18:35:38;;;;;;;1999.90;999.90;;;;;;;21.28;67.32;95994.78;5110659;28;20707;-60
2021/06/17 18:38:09;;;;;;;1999.90;999.90;;;;;;;21.06;69.80;96006.06;5110917;28;20573;-60
2021/06/17 18:40:36;;;;;;;1999.90;999.90;;;;;;;20.98;70.91;96007.00;5110715;28;20217;-60
2021/06/17 18:43:04;;;;;;;1999.90;999.90;;;;;;;20.87;71.83;95998.13;5110522;28;20195;-59
2021/06/17 18:45:33;;;;;;;1999.90;999.90;;;;;;;20.69;73.28;95996.97;5110765;28;20286;-58
2021/06/17 18:48:00;;;;;;;1999.90;999.90;;;;;;;20.56;74.02;95989.16;5110895;28;20194;-60
2021/06/17 18:50:27;;;;;;;1999.90;999.90;;;;;;;20.43;75.23;95990.38;5110637;28;20220;-60
2021/06/17 18:52:55;;;;;;;1999.90;999.90;;;;;;;20.49;74.47;95994.28;5111088;28;20195;-61
2021/06/17 18:55:24;;;;;;;1999.90;999.90;;;;;;;20.41;74.60;95997.88;5110321;28;20663;-60
2021/06/17 18:57:51;;;;;;;1999.90;999.90;;;;;;;20.39;74.70;95989.53;5110631;27;20202;-59
2021/06/17 19:00:19;;;;;;;1999.90;999.90;;;;;;;20.30;75.02;95990.78;5110437;28;20654;-61
2021/06/17 19:02:47;;;;;;;1999.90;999.90;;;;;;;20.21;75.71;95993.63;5110390;28;20191;-61
2021/06/17 19:05:16;;;;;;;1999.90;999.90;;;;;;;20.13;76.29;95989.25;5110390;28;20724;-61
2021/06/17 19:07:44;;;;;;;1999.90;999.90;;;;;;;20.14;76.38;95993.44;5110303;28;20205;-61
2021/06/17 19:10:24;;;;;;;1999.90;999.90;;;;;;;20.13;76.96;95997.19;5110369;28;20198;-61
2021/06/17 19:12:55;;;;;;;1999.90;999.90;;;;;;;20.10;77.42;95992.59;5110542;28;20569;-61
2021/06/17 19:15:22;;;;;;;1999.90;999.90;;;;;;;20.10;78.40;96003.16;5110329;28;20317;-61
2021/06/17 19:17:50;;;;;;;1999.90;999.90;;;;;;;20.13;78.62;96002.47;5110333;28;20661;-61
2021/06/17 19:20:18;;;;;;;1999.90;999.90;;;;;;;20.07;78.37;96014.41;5110149;28;20286;-60
2021/06/17 19:22:46;;;;;;;1999.90;999.90;;;;;;;20.01;79.77;96005.22;5110382;28;20568;-61
2021/06/17 19:25:16;;;;;;;1999.90;999.90;;;;;;;19.93;80.41;96011.41;5110110;28;20771;-60
2021/06/17 19:27:43;;;;;;;1999.90;999.90;;;;;;;19.86;81.28;96008.59;5110186;28;20571;-60
2021/06/17 19:30:15;;;;;;;1999.90;999.90;;;;;;;19.80;82.37;96013.34;5110272;28;20741;-61
2021/06/17 19:32:42;;;;;;;1999.90;999.90;;;;;;;19.60;84.39;96017.75;5110116;28;20229;-60
2021/06/17 19:35:11;;;;;;;1999.90;999.90;;;;;;;19.54;86.88;96011.19;5110016;28;20231;-60
2021/06/17 19:37:38;;;;;;;1999.90;999.90;;;;;;;19.52;89.07;96015.28;5109994;28;20198;-59
2021/06/17 19:40:07;;;;;;;1999.90;999.90;;;;;;;19.47;90.04;96013.66;5110015;28;20191;-59
2021/06/17 19:42:34;;;;;;;1999.90;999.90;;;;;;;19.44;90.34;96019.59;5110119;28;20198;-60
2021/06/17 19:45:02;;;;;;;1999.90;999.90;;;;;;;19.28;91.97;96014.25;5109859;28;20198;-60
2021/06/17 19:47:30;;;;;;;1999.90;999.90;;;;;;;19.22;94.02;96018.25;5110216;28;20190;-60
2021/06/17 19:49:57;;;;;;;1999.90;999.90;;;;;;;19.15;94.65;96012.75;5110469;28;20194;-59
2021/06/17 19:52:28;;;;;;;1999.90;999.90;;;;;;;19.21;94.17;96021.19;5114149;28;20592;-60
2021/06/17 19:54:57;;;;;;;1999.90;999.90;;;;;;;19.15;94.75;96020.66;5114014;28;20584;-59
2021/06/17 19:57:25;;;;;;;1999.90;999.90;;;;;;;19.10;95.21;96015.63;5113748;28;20187;-60
2021/06/17 19:59:52;;;;;;;1999.90;999.90;;;;;;;19.05;96.71;96015.09;5113602;28;20688;-60
2021/06/17 20:02:22;;;;;;;1999.90;999.90;;;;;;;19.05;96.49;96020.38;5113790;28;20197;-59
2021/06/17 20:04:50;;;;;;;1999.90;999.90;;;;;;;19.01;96.89;96028.19;5113431;28;20206;-61
2021/06/17 20:07:18;;;;;;;1999.90;999.90;;;;;;;18.96;98.11;96025.00;5113457;28;20199;-59
2021/06/17 20:09:46;;;;;;;1999.90;999.90;;;;;;;18.95;98.53;96021.59;5113484;28;20191;-60
2021/06/17 20:12:15;;;;;;;1999.90;999.90;;;;;;;18.90;99.71;96027.09;5113432;28;20234;-60
2021/06/17 20:14:43;;;;;;;1999.90;999.90;;;;;;;18.95;99.05;96034.78;5113127;28;20875;-60
2021/06/17 20:17:10;;;;;;;1999.90;999.90;;;;;;;18.89;99.29;96031.59;5113686;28;20187;-60
2021/06/17 20:19:37;;;;;;;1999.90;999.90;;;;;;;18.85;99.52;96035.22;5113200;28;20195;-60
2021/06/17 20:22:08;;;;;;;1999.90;999.90;;;;;;;18.68;100.00;96033.59;5113734;28;20199;-59
2021/06/17 20:24:36;;;;;;;1999.90;999.90;;;;;;;18.67;100.00;96026.81;5113372;28;20227;-59
2021/06/17 20:27:04;;;;;;;1999.90;999.90;;;;;;;18.58;100.00;96036.69;5113440;28;20191;-60
2021/06/17 20:29:31;;;;;;;1999.90;999.90;;;;;;;18.67;100.00;96033.94;5113220;28;20191;-59
2021/06/17 20:31:58;;;;;;;1999.90;999.90;;;;;;;18.62;100.00;96036.81;5113357;27;20217;-60
2021/06/17 20:34:26;;;;;;;1999.90;999.90;;;;;;;18.63;100.00;96033.09;5113003;28;20206;-59
2021/06/17 20:36:54;;;;;;;1999.90;999.90;;;;;;;18.55;100.00;96036.59;5112962;28;20191;-60
2021/06/17 20:39:23;;;;;;;1999.90;999.90;;;;;;;18.48;100.00;96027.34;5113096;28;20624;-60
2021/06/17 20:41:50;;;;;;;1999.90;999.90;;;;;;;18.47;100.00;96025.06;5113148;28;20199;-60
2021/06/17 20:44:17;;;;;;;1999.90;999.90;;;;;;;18.32;100.00;96021.22;5112803;28;20248;-60
2021/06/17 20:46:45;;;;;;;1999.90;999.90;;;;;;;18.26;100.00;96014.63;5112853;28;20661;-60
2021/06/17 20:49:12;;;;;;;1999.90;999.90;;;;;;;18.31;100.00;96019.69;5113079;28;20283;-58
2021/06/17 20:51:43;;;;;;;1999.90;999.90;;;;;;;18.18;100.00;96022.66;5112931;28;20210;-59
2021/06/17 20:54:11;;;;;;;1999.90;999.90;;;;;;;18.12;100.00;96019.47;5113244;28;20198;-60
2021/06/17 20:56:40;;;;;;;1999.90;999.90;;;;;;;18.24;100.00;96018.69;5112777;28;20227;-60
2021/06/17 20:59:08;;;;;;;1999.90;999.90;;;;;;;18.26;100.00;96019.13;5112615;27;20199;-59
2021/06/17 21:01:35;;;;;;;1999.90;999.90;;;;;;;18.16;100.00;96017.69;5112436;28;20201;-60
2021/06/17 21:04:02;;;;;;;1999.90;999.90;;;;;;;18.21;100.00;96019.34;5112545;28;20211;-60
2021/06/17 21:06:29;;;;;;;1999.90;999.90;;;;;;;18.24;100.00;96018.69;5112342;28;20194;-60
2021/06/17 21:08:57;;;;;;;1999.90;999.90;;;;;;;18.16;100.00;96011.66;5112547;28;20207;-59
2021/06/17 21:11:24;;;;;;;1999.90;999.90;;;;;;;18.12;100.00;96008.16;5112634;28;20279;-59
2021/06/17 21:13:53;;;;;;;1999.90;999.90;;;;;;;18.00;100.00;96001.78;5112146;28;20223;-60
2021/06/17 21:16:20;;;;;;;1999.90;999.90;;;;;;;17.97;100.00;96007.72;5112089;28;20325;-59
2021/06/17 21:18:47;;;;;;;1999.90;999.90;;;;;;;17.90;100.00;95998.81;5112250;28;20272;-59
2021/06/17 21:21:14;;;;;;;1999.90;999.90;;;;;;;17.80;100.00;96001.88;5112170;28;20199;-59
2021/06/17 21:23:41;;;;;;;1999.90;999.90;;;;;;;17.80;100.00;96000.03;5112344;28;20197;-59
2021/06/17 21:26:09;;;;;;;1999.90;999.90;;;;;;;17.74;100.00;95998.69;5112273;28;20210;-59
2021/06/17 21:28:37;;;;;;;1999.90;999.90;;;;;;;17.76;100.00;96001.75;5112006;28;20712;-59
2021/06/17 21:31:05;;;;;;;1999.90;999.90;;;;;;;17.63;100.00;95998.34;5112045;28;20202;-60
2021/06/17 21:33:33;;;;;;;1999.90;999.90;;;;;;;17.60;99.53;96001.63;5111866;28;20195;-60
2021/06/17 21:36:00;;;;;;;1999.90;999.90;;;;;;;17.34;99.50;95998.44;5112345;28;20321;-59
2021/06/17 21:38:28;;;;;;;1999.90;999.90;;;;;;;17.42;97.83;95996.84;5112128;28;20195;-60
2021/06/17 21:40:55;;;;;;;1999.90;999.90;;;;;;;17.27;97.65;95998.22;5111991;28;20225;-59
2021/06/17 21:43:23;;;;;;;1999.90;999.90;;;;;;;17.00;98.60;95996.13;5111873;28;20237;-60
2021/06/17 21:45:50;;;;;;;1999.90;999.90;;;;;;;16.89;98.98;95984.47;5111782;28;20191;-60
2021/06/17 21:48:18;;;;;;;1999.90;999.90;;;;;;;16.79;99.91;95969.88;5111542;28;20546;-58
2021/06/17 21:50:46;;;;;;;1999.90;999.90;;;;;;;16.74;100.00;95976.06;5111585;28;20202;-59
2021/06/17 21:53:13;;;;;;;1999.90;999.90;;;;;;;16.74;100.00;95978.69;5111496;28;20198;-60
2021/06/17 21:55:40;;;;;;;1999.90;999.90;;;;;;;16.66;100.00;95982.16;5111445;28;20236;-59
2021/06/17 21:58:08;;;;;;;1999.90;999.90;;;;;;;16.61;100.00;95984.22;5111340;28;20199;-59
2021/06/17 22:00:35;;;;;;;1999.90;999.90;;;;;;;16.54;100.00;95983.91;5111360;28;20194;-60
2021/06/17 22:03:02;;;;;;;1999.90;999.90;;;;;;;16.45;100.00;95981.34;5111529;28;20681;-59
2021/06/17 22:05:31;;;;;;;1999.90;999.90;;;;;;;16.39;100.00;95982.59;5111598;28;20295;-60
2021/06/17 22:07:59;;;;;;;1999.90;999.90;;;;;;;16.22;100.00;95983.50;5111061;28;20191;-59
2021/06/17 22:10:27;;;;;;;1999.90;999.90;;;;;;;16.18;100.00;95982.59;5111193;28;20278;-59
2021/06/17 22:12:54;;;;;;;1999.90;999.90;;;;;;;16.04;100.00;95973.41;5110520;28;20230;-60
2021/06/17 22:15:21;;;;;;;1999.90;999.90;;;;;;;16.02;100.00;95963.22;5110522;28;20238;-59
2021/06/17 22:17:49;;;;;;;1999.90;999.90;;;;;;;16.00;100.00;95962.75;5110937;27;20195;-59
2021/06/17 22:20:17;;;;;;;1999.90;999.90;;;;;;;16.03;100.00;95959.53;5110865;28;20568;-59
2021/06/17 22:22:47;;;;;;;1999.90;999.90;;;;;;;15.97;100.00;95952.13;5110919;28;20199;-60
2021/06/17 22:28:38;;;;;;;1999.90;999.90;;;;;;;16.11;100.00;95942.19;5110982;28;20190;-60
2021/06/17 22:31:05;;;;;;;1999.90;999.90;;;;;;;16.05;100.00;95951.31;5110641;28;20195;-60
2021/06/17 22:33:32;;;;;;;1999.90;999.90;;;;;;;16.01;100.00;95953.81;5110715;28;20191;-60
2021/06/17 22:36:00;;;;;;;1999.90;999.90;;;;;;;15.93;100.00;95950.16;5110511;28;20609;-59
2021/06/17 22:38:29;;;;;;;1999.90;999.90;;;;;;;15.85;100.00;95952.81;5111059;28;20223;-59
2021/06/17 22:40:56;;;;;;;1999.90;999.90;;;;;;;15.80;100.00;95942.50;5110855;28;20191;-60
2021/06/17 22:43:24;;;;;;;1999.90;999.90;;;;;;;15.87;100.00;95942.78;5110607;28;20214;-59
2021/06/17 22:45:51;;;;;;;1999.90;999.90;;;;;;;15.84;100.00;95940.81;5110595;28;20191;-59
2021/06/17 22:48:18;;;;;;;1999.90;999.90;;;;;;;15.94;100.00;95943.81;5110645;28;20210;-60
2021/06/17 22:50:45;;;;;;;1999.90;999.90;;;;;;;15.98;100.00;95943.19;5110465;28;20191;-59
2021/06/17 22:53:13;;;;;;;1999.90;999.90;;;;;;;15.92;100.00;95940.75;5110859;28;20190;-59
2021/06/17 22:55:41;;;;;;;1999.90;999.90;;;;;;;15.92;100.00;95945.22;5110516;28;20223;-60
2021/06/17 22:58:08;;;;;;;1999.90;999.90;;;;;;;15.88;100.00;95937.22;5110371;28;20581;-59
2021/06/17 23:00:36;;;;;;;1999.90;999.90;;;;;;;15.88;100.00;95936.47;5110729;28;20199;-59
2021/06/17 23:03:07;;;;;;;1999.90;999.90;;;;;;;15.86;100.00;95939.38;5110315;28;20234;-59
2021/06/17 23:05:34;;;;;;;1999.90;999.90;;;;;;;15.79;100.00;95938.34;5110449;28;20191;-59
2021/06/17 23:08:01;;;;;;;1999.90;999.90;;;;;;;15.86;100.00;95939.38;5110398;28;20195;-60
2021/06/17 23:10:29;;;;;;;1999.90;999.90;;;;;;;15.90;100.00;95934.28;5110460;28;20576;-60
2021/06/17 23:12:58;;;;;;;1999.90;999.90;;;;;;;15.83;100.00;95931.41;5110406;28;20582;-59
2021/06/17 23:15:25;;;;;;;1999.90;999.90;;;;;;;15.82;100.00;95929.84;5110092;28;20234;-60
2021/06/17 23:17:53;;;;;;;1999.90;999.90;;;;;;;15.84;100.00;95932.94;5110852;28;20222;-60
2021/06/17 23:20:21;;;;;;;1999.90;999.90;;;;;;;15.87;100.00;95927.06;5110577;28;20199;-60
2021/06/17 23:22:49;;;;;;;1999.90;999.90;;;;;;;15.85;100.00;95923.97;5110089;28;20218;-60
2021/06/17 23:25:17;;;;;;;1999.90;999.90;;;;;;;15.83;100.00;95918.28;5111319;28;20187;-60
2021/06/17 23:27:44;;;;;;;1999.90;999.90;;;;;;;15.56;100.00;95918.69;5114346;28;20191;-59
2021/06/17 23:30:16;;;;;;;1999.90;999.90;;;;;;;15.56;100.00;95916.84;5114123;28;20191;-59
2021/06/17 23:32:45;;;;;;;1999.90;999.90;;;;;;;15.57;100.00;95920.25;5114331;28;20688;-59
2021/06/17 23:35:13;;;;;;;1999.90;999.90;;;;;;;15.66;100.00;95920.97;5114465;28;20191;-60
2021/06/17 23:37:40;;;;;;;1999.90;999.90;;;;;;;15.69;100.00;95920.38;5114006;28;20320;-59
2021/06/17 23:40:10;;;;;;;1999.90;999.90;;;;;;;15.76;100.00;95918.00;5114085;28;20187;-59
2021/06/17 23:42:38;;;;;;;1999.90;999.90;;;;;;;15.79;100.00;95926.00;5114033;28;20195;-60
2021/06/17 23:45:06;;;;;;;1999.90;999.90;;;;;;;15.74;100.00;95923.56;5113875;28;20911;-60
2021/06/17 23:47:34;;;;;;;1999.90;999.90;;;;;;;15.48;100.00;95915.78;5114126;28;20199;-58
2021/06/17 23:50:02;;;;;;;1999.90;999.90;;;;;;;15.46;100.00;95914.53;5114002;28;20202;-59
2021/06/17 23:52:29;;;;;;;1999.90;999.90;;;;;;;15.43;100.00;95918.56;5114194;27;20227;-60
2021/06/17 23:54:56;;;;;;;1999.90;999.90;;;;;;;15.43;100.00;95912.56;5113927;28;20203;-60
2021/06/17 23:57:24;;;;;;;1999.90;999.90;;;;;;;15.38;100.00;95910.13;5113684;28;20227;-59
2021/06/17 23:59:51;;;;;;;1999.90;999.90;;;;;;;15.29;100.00;95904.88;5113705;28;20205;-59
